Antares — DFJQ — position and weather

sailwx.info

Track history (hours):
 
Tides and Currents Weather Stations Pressure Air Temp Water Temp Dewpoint Dewpoint Depression Visibility Wind Speed Wind Dir Waves Ship Positions

Antares

Last reported at 2014-Sep-02 21:33 UTC. Time now 2014-Sep-02 21:37 UTC.
Position N 53°52' E 008°43'.

Length 79 m; draft 4.7 m.

Type: Ship. MMSI: 218777000.

Date/timePositionNaut miles runAvg speedWind from/ knotsBaromVisibWave heightAir tempDewpointWater temp
2014-Sep-02 21:33N 53°52' E 008°43'0 0.0
2014-Sep-02 20:33N 53°52' E 008°43'0 0.0
2014-Sep-02 19:33N 53°52' E 008°43'0 0.0
2014-Sep-02 18:33N 53°52' E 008°43'0 0.0
2014-Sep-02 17:33N 53°52' E 008°43'0 0.0
2014-Sep-02 16:33N 53°52' E 008°43'0 0.0
2014-Sep-02 15:33N 53°52' E 008°43'0 0.0
2014-Sep-02 14:33N 53°52' E 008°43'0 0.0
2014-Sep-02 13:33N 53°52' E 008°43'0 0.0
2014-Sep-02 12:33N 53°52' E 008°43'0 0.0
2014-Sep-02 11:33N 53°52' E 008°43'0 0.0
2014-Sep-02 10:33N 53°52' E 008°43'0 0.0
2014-Sep-02 09:33N 53°52' E 008°43'0 0.0
2014-Sep-02 08:33N 53°52' E 008°43'0 0.0
2014-Sep-02 07:33N 53°52' E 008°43'0 0.0
2014-Sep-02 06:33N 53°52' E 008°43'0 0.0
2014-Sep-02 05:33N 53°52' E 008°43'0 0.0
2014-Sep-02 04:33N 53°52' E 008°43'0 0.0
2014-Sep-02 03:33N 53°52' E 008°43'0 0.0
2014-Sep-02 02:33N 53°52' E 008°43'0 0.0
2014-Sep-02 01:33N 53°52' E 008°43'0 0.0
2014-Sep-02 00:33N 53°52' E 008°43'0 0.0
2014-Sep-01 23:33N 53°52' E 008°43'0 0.0
2014-Sep-01 22:33N 53°52' E 008°43'0 0.0
2014-Sep-01 21:33N 53°52' E 008°43'0 0.0
2014-Sep-01 20:33N 53°52' E 008°43'0 0.0
2014-Sep-01 19:33N 53°52' E 008°43'0 0.0
2014-Sep-01 18:33N 53°52' E 008°43'0 0.0
2014-Sep-01 17:33N 53°52' E 008°43'0 0.0
2014-Sep-01 16:33N 53°52' E 008°43'0 0.0
2014-Sep-01 15:33N 53°52' E 008°43'0 0.0
2014-Sep-01 14:33N 53°52' E 008°43'0 0.0
2014-Sep-01 13:33N 53°52' E 008°43'0 0.0
2014-Sep-01 12:33N 53°52' E 008°43'0 0.0
2014-Sep-01 11:33N 53°52' E 008°43'0 0.0
2014-Sep-01 10:33N 53°52' E 008°43'0 0.0
2014-Sep-01 09:33N 53°52' E 008°43'0 0.0
2014-Sep-01 08:33N 53°52' E 008°43'0 0.0
2014-Sep-01 07:30N 53°52' E 008°43'0 0.0
2014-Sep-01 06:33N 53°52' E 008°43'0 0.0
2014-Sep-01 05:33N 53°52' E 008°43'0 0.0
2014-Sep-01 04:33N 53°52' E 008°43'0 0.0
2014-Sep-01 03:33N 53°52' E 008°43'0 0.0
2014-Sep-01 02:33N 53°52' E 008°43'0 0.0
2014-Sep-01 01:33N 53°52' E 008°43'0 0.0
2014-Sep-01 00:33N 53°52' E 008°43'0 0.0
2014-Aug-31 23:33N 53°52' E 008°43'0 0.0
2014-Aug-31 22:33N 53°52' E 008°43'0 0.0
2014-Aug-31 21:33N 53°52' E 008°43'0 0.0
2014-Aug-31 20:33N 53°52' E 008°43'0 0.0
2014-Aug-31 19:33N 53°52' E 008°43'0 0.0
2014-Aug-31 18:33N 53°52' E 008°43'0 0.0
2014-Aug-31 17:33N 53°52' E 008°43'0 0.0
2014-Aug-31 16:33N 53°52' E 008°43'0 0.0
2014-Aug-31 15:33N 53°52' E 008°43'0 0.0
2014-Aug-31 14:33N 53°52' E 008°43'0 0.0
2014-Aug-31 13:30N 53°52' E 008°43'0 0.0
2014-Aug-31 12:30N 53°52' E 008°43'0 0.0
2014-Aug-31 11:30N 53°52' E 008°43'0 0.0
2014-Aug-31 10:33N 53°52' E 008°43'0 0.0
2014-Aug-31 09:33N 53°52' E 008°43'0 0.0
2014-Aug-31 08:33N 53°52' E 008°43'0 0.0
2014-Aug-31 07:33N 53°52' E 008°43'0 0.0
2014-Aug-31 06:33N 53°52' E 008°43'0 0.2
2014-Aug-31 05:33N 53°52' E 008°43'5 4.8
2014-Aug-31 04:33N 53°50' E 008°50'9 9.5
2014-Aug-31 03:33N 53°53' E 009°06'8 8.0
2014-Aug-31 02:33N 53°51' E 009°19'8 8.3
2014-Aug-31 01:33N 53°44' E 009°27'10 9.8
2014-Aug-31 00:33N 53°36' E 009°36'1211.9
2014-Aug-30 23:33N 53°33' E 009°55'3 2.5
2014-Aug-30 22:28N 53°30' E 009°57'0 0.0
2014-Aug-30 21:28N 53°30' E 009°57'0 0.0
2014-Aug-30 20:28N 53°30' E 009°57'0 0.0
2014-Aug-30 19:28N 53°30' E 009°57'0 0.1
2014-Aug-30 18:31N 53°30' E 009°57'0 0.0
2014-Aug-30 17:31N 53°30' E 009°57'0 0.0
2014-Aug-30 16:28N 53°30' E 009°57'0 0.0
2014-Aug-30 15:31N 53°30' E 009°57'1 0.8
2014-Aug-30 14:33N 53°31' E 009°57'1 1.0
2014-Aug-30 13:33N 53°32' E 009°58'0 0.0
2014-Aug-30 12:33N 53°32' E 009°58'0 0.0
2014-Aug-30 11:33N 53°32' E 009°58'0 0.0
2014-Aug-30 10:30N 53°32' E 009°58'0 0.0
2014-Aug-30 09:33N 53°32' E 009°58'0 0.0
2014-Aug-30 08:33N 53°32' E 009°58'0 0.0
2014-Aug-30 07:18N 53°32' E 009°58'0 0.0
2014-Aug-30 06:33N 53°32' E 009°58'0 0.0
2014-Aug-30 05:30N 53°32' E 009°58'0 0.0
2014-Aug-30 04:33N 53°32' E 009°58'0 0.0
2014-Aug-30 03:27N 53°32' E 009°58'0 0.0
2014-Aug-30 02:27N 53°32' E 009°58'0 0.0
2014-Aug-30 01:33N 53°32' E 009°58'0 0.0
2014-Aug-30 00:33N 53°32' E 009°58'0 0.0
2014-Aug-29 23:33N 53°32' E 009°58'0 0.0
2014-Aug-29 22:33N 53°32' E 009°58'0 0.0
2014-Aug-29 21:33N 53°32' E 009°58'0 0.0
2014-Aug-29 20:33N 53°32' E 009°58'1 1.3
2014-Aug-29 19:33N 53°30' E 009°58'0 0.0
2014-Aug-29 18:32N 53°30' E 009°58'0 0.0
2014-Aug-29 17:31N 53°30' E 009°58'0 0.0
2014-Aug-29 16:25N 53°30' E 009°58'0 0.0
2014-Aug-29 15:32N 53°30' E 009°58'0 0.0
2014-Aug-29 14:32N 53°30' E 009°58'0 0.3
2014-Aug-29 13:34N 53°30' E 009°57'9 8.9
2014-Aug-29 12:34N 53°34' E 009°44'1010.3
2014-Aug-29 11:33N 53°40' E 009°30'10 9.6
2014-Aug-29 10:33N 53°49' E 009°22'9 8.8
2014-Aug-29 09:33N 53°53' E 009°09'8 7.7
2014-Aug-29 08:33N 53°51' E 008°56'7 7.3
2014-Aug-29 07:34N 53°52' E 008°44'1 0.9
2014-Aug-29 06:28N 53°52' E 008°43'0 0.0
2014-Aug-29 05:31N 53°52' E 008°43'0 0.0
2014-Aug-29 04:31N 53°52' E 008°43'0 0.0
2014-Aug-29 03:31N 53°52' E 008°43'0 0.0
2014-Aug-29 02:31N 53°52' E 008°43'0 0.0
2014-Aug-29 01:31N 53°52' E 008°43'0 0.0
2014-Aug-29 00:19N 53°52' E 008°43'0 0.0
2014-Aug-28 23:32N 53°52' E 008°43'0 0.0
2014-Aug-28 22:28N 53°52' E 008°43'0 0.0
2014-Aug-28 21:31N 53°52' E 008°43'0 0.0
2014-Aug-28 20:31N 53°52' E 008°43'0 0.0
2014-Aug-28 19:32N 53°52' E 008°43'0 0.0
2014-Aug-28 18:31N 53°52' E 008°43'0 0.0
2014-Aug-28 17:31N 53°52' E 008°43'0 0.0
2014-Aug-28 16:31N 53°52' E 008°43'0 0.0
2014-Aug-28 15:31N 53°52' E 008°43'0 0.0
2014-Aug-28 14:31N 53°52' E 008°43'0 0.0
2014-Aug-28 13:31N 53°52' E 008°43'0 0.0
2014-Aug-28 12:31N 53°52' E 008°43'0 0.0
2014-Aug-28 11:31N 53°52' E 008°43'0 0.0
2014-Aug-28 10:31N 53°52' E 008°43'0 0.0
2014-Aug-28 09:31N 53°52' E 008°43'0 0.0
2014-Aug-28 08:31N 53°52' E 008°43'0 0.0
2014-Aug-28 07:31N 53°52' E 008°43'0 0.0
2014-Aug-28 06:31N 53°52' E 008°43'0 0.0
2014-Aug-28 05:31N 53°52' E 008°43'0 0.0
2014-Aug-28 04:31N 53°52' E 008°43'0 0.0
2014-Aug-28 03:31N 53°52' E 008°43'0 0.0
2014-Aug-28 02:28N 53°52' E 008°43'0 0.0
2014-Aug-28 01:31N 53°52' E 008°43'0 0.0
2014-Aug-28 00:31N 53°52' E 008°43'0 0.0
2014-Aug-27 23:31N 53°52' E 008°43'0 0.0
2014-Aug-27 22:31N 53°52' E 008°43'0 0.0
2014-Aug-27 21:31N 53°52' E 008°43'0 0.0
2014-Aug-27 20:31N 53°52' E 008°43'0 0.0
2014-Aug-27 19:31N 53°52' E 008°43'0 0.0
2014-Aug-27 18:31N 53°52' E 008°43'0 0.0
2014-Aug-27 17:25N 53°52' E 008°43'0 0.0
2014-Aug-27 16:31N 53°52' E 008°43'0 0.0
2014-Aug-27 15:31N 53°52' E 008°43'0 0.0
2014-Aug-27 14:28N 53°52' E 008°43'0 0.0
2014-Aug-27 13:31N 53°52' E 008°43'0 0.0
2014-Aug-27 12:31N 53°52' E 008°43'0 0.0
2014-Aug-27 11:31N 53°52' E 008°43'0 0.0
2014-Aug-27 10:28N 53°52' E 008°43'0 0.0
2014-Aug-27 09:31N 53°52' E 008°43'0 0.0
2014-Aug-27 08:32N 53°52' E 008°43'0 0.0
2014-Aug-27 07:32N 53°52' E 008°43'0 0.0
2014-Aug-27 06:31N 53°52' E 008°43'0 0.0
2014-Aug-27 05:31N 53°52' E 008°43'0 0.0
2014-Aug-27 04:31N 53°52' E 008°43'0 0.0
2014-Aug-27 03:31N 53°52' E 008°43'0 0.0
2014-Aug-27 02:31N 53°52' E 008°43'0 0.0
2014-Aug-27 01:31N 53°52' E 008°43'0 0.0
2014-Aug-27 00:31N 53°52' E 008°43'0 0.0
2014-Aug-26 23:28N 53°52' E 008°43'0 0.0
2014-Aug-26 22:31N 53°52' E 008°43'0 0.0
2014-Aug-26 21:31N 53°52' E 008°43'0 0.0
2014-Aug-26 20:31N 53°52' E 008°43'0 0.0
2014-Aug-26 19:31N 53°52' E 008°43'0 0.0
2014-Aug-26 18:31N 53°52' E 008°43'0 0.0
2014-Aug-26 17:31N 53°52' E 008°43'0 0.0
2014-Aug-26 16:31N 53°52' E 008°43'0 0.0
2014-Aug-26 15:31N 53°52' E 008°43'0 0.0
2014-Aug-26 14:32N 53°52' E 008°43'0 0.0
2014-Aug-26 13:31N 53°52' E 008°43'0 0.0
2014-Aug-26 12:31N 53°52' E 008°43'0 0.0
2014-Aug-26 11:31N 53°52' E 008°43'0 0.0
2014-Aug-26 10:31N 53°52' E 008°43'0 0.0
2014-Aug-26 09:32N 53°52' E 008°43'0 0.0
2014-Aug-26 08:32N 53°52' E 008°43'0 0.0
2014-Aug-26 07:32N 53°52' E 008°43'0 0.0
2014-Aug-26 06:31N 53°52' E 008°43'0 0.0
2014-Aug-26 05:31N 53°52' E 008°43'0 0.0
2014-Aug-26 04:31N 53°52' E 008°43'0 0.0
2014-Aug-26 03:31N 53°52' E 008°43'0 0.0
2014-Aug-26 02:31N 53°52' E 008°43'0 0.0
2014-Aug-26 01:31N 53°52' E 008°43'0 0.0
2014-Aug-26 00:31N 53°52' E 008°43'0 0.0
2014-Aug-25 23:31N 53°52' E 008°43'0 0.0
2014-Aug-25 22:31N 53°52' E 008°43'0 0.0
2014-Aug-25 21:31N 53°52' E 008°43'0 0.0
2014-Aug-25 20:31N 53°52' E 008°43'0 0.0
2014-Aug-25 19:31N 53°52' E 008°43'0 0.0
2014-Aug-25 18:31N 53°52' E 008°43'0 0.0
2014-Aug-25 17:31N 53°52' E 008°43'0 0.0
2014-Aug-25 16:31N 53°52' E 008°43'0 0.0
2014-Aug-25 15:31N 53°52' E 008°43'0 0.0
2014-Aug-25 14:31N 53°52' E 008°43'0 0.0
2014-Aug-25 13:31N 53°52' E 008°43'0 0.0
2014-Aug-25 12:28N 53°52' E 008°43'0 0.0
2014-Aug-25 11:31N 53°52' E 008°43'0 0.0
2014-Aug-25 10:31N 53°52' E 008°43'0 0.0
2014-Aug-25 09:31N 53°52' E 008°43'0 0.0
2014-Aug-25 08:32N 53°52' E 008°43'0 0.0
2014-Aug-25 07:31N 53°52' E 008°43'0 0.0
2014-Aug-25 06:31N 53°52' E 008°43'0 0.0
2014-Aug-25 05:31N 53°52' E 008°43'0 0.0
2014-Aug-25 04:31N 53°52' E 008°43'0 0.0
2014-Aug-25 03:31N 53°52' E 008°43'0 0.2
2014-Aug-25 02:33N 53°52' E 008°43'4 4.4
2014-Aug-25 01:33N 53°56' E 008°39'1010.2
2014-Aug-25 00:33N 53°59' E 008°23'1110.9
2014-Aug-24 23:33N 53°58' E 008°04'1010.0
2014-Aug-24 22:33N 53°50' E 007°55'8 8.3
2014-Aug-24 21:33N 53°43' E 008°04'9 8.8
2014-Aug-24 20:33N 53°35' E 008°10'2 1.8
2014-Aug-24 19:31N 53°33' E 008°10'0 0.0
2014-Aug-24 18:31N 53°33' E 008°10'0 0.0
2014-Aug-24 17:28N 53°33' E 008°10'0 0.0
2014-Aug-24 16:31N 53°33' E 008°10'0 0.0
2014-Aug-24 15:31N 53°33' E 008°10'0 0.0
2014-Aug-24 14:31N 53°33' E 008°10'0 0.2
2014-Aug-24 13:33N 53°34' E 008°10'4 4.4
2014-Aug-24 12:33N 53°38' E 008°08'1010.3
2014-Aug-24 11:34N 53°47' E 008°02'8 8.1
2014-Aug-24 10:33N 53°54' E 007°53'9 9.0
2014-Aug-24 09:34N 54°00' E 008°03'9 8.6
2014-Aug-24 08:33N 54°00' E 008°18'8 7.9
2014-Aug-24 07:33N 53°58' E 008°31'9 9.5
2014-Aug-24 06:34N 53°52' E 008°43'0 0.4
2014-Aug-24 05:32N 53°52' E 008°43'0 0.0
2014-Aug-24 04:32N 53°52' E 008°43'0 0.0
2014-Aug-24 03:32N 53°52' E 008°43'0 0.0
2014-Aug-24 02:32N 53°52' E 008°43'0 0.0
2014-Aug-24 01:32N 53°52' E 008°43'0 0.0
2014-Aug-24 00:32N 53°52' E 008°43'0 0.0
2014-Aug-23 23:32N 53°52' E 008°43'0 0.0
2014-Aug-23 22:32N 53°52' E 008°43'  
Track history (hours):
 
Tides and Currents Weather Stations Pressure Air Temp Water Temp Dewpoint Dewpoint Depression Visibility Wind Speed Wind Dir Waves Ship Positions

Antares

Last reported at 2014-Sep-02 21:33 UTC. Time now 2014-Sep-02 21:37 UTC.
Position N 53°52' E 008°43'.

Length 79 m; draft 4.7 m.

Type: Ship. MMSI: 218777000.

Date/timePositionNaut miles runAvg speedWind from/ knotsBaromVisibWave heightAir tempDewpointWater temp
2014-Sep-02 21:33N 53°52' E 008°43'0 0.0
2014-Sep-02 20:33N 53°52' E 008°43'0 0.0
2014-Sep-02 19:33N 53°52' E 008°43'0 0.0
2014-Sep-02 18:33N 53°52' E 008°43'0 0.0
2014-Sep-02 17:33N 53°52' E 008°43'0 0.0
2014-Sep-02 16:33N 53°52' E 008°43'0 0.0
2014-Sep-02 15:33N 53°52' E 008°43'0 0.0
2014-Sep-02 14:33N 53°52' E 008°43'0 0.0
2014-Sep-02 13:33N 53°52' E 008°43'0 0.0
2014-Sep-02 12:33N 53°52' E 008°43'0 0.0
2014-Sep-02 11:33N 53°52' E 008°43'0 0.0
2014-Sep-02 10:33N 53°52' E 008°43'0 0.0
2014-Sep-02 09:33N 53°52' E 008°43'0 0.0
2014-Sep-02 08:33N 53°52' E 008°43'0 0.0
2014-Sep-02 07:33N 53°52' E 008°43'0 0.0
2014-Sep-02 06:33N 53°52' E 008°43'0 0.0
2014-Sep-02 05:33N 53°52' E 008°43'0 0.0
2014-Sep-02 04:33N 53°52' E 008°43'0 0.0
2014-Sep-02 03:33N 53°52' E 008°43'0 0.0
2014-Sep-02 02:33N 53°52' E 008°43'0 0.0
2014-Sep-02 01:33N 53°52' E 008°43'0 0.0
2014-Sep-02 00:33N 53°52' E 008°43'0 0.0
2014-Sep-01 23:33N 53°52' E 008°43'0 0.0
2014-Sep-01 22:33N 53°52' E 008°43'0 0.0
2014-Sep-01 21:33N 53°52' E 008°43'0 0.0
2014-Sep-01 20:33N 53°52' E 008°43'0 0.0
2014-Sep-01 19:33N 53°52' E 008°43'0 0.0
2014-Sep-01 18:33N 53°52' E 008°43'0 0.0
2014-Sep-01 17:33N 53°52' E 008°43'0 0.0
2014-Sep-01 16:33N 53°52' E 008°43'0 0.0
2014-Sep-01 15:33N 53°52' E 008°43'0 0.0
2014-Sep-01 14:33N 53°52' E 008°43'0 0.0
2014-Sep-01 13:33N 53°52' E 008°43'0 0.0
2014-Sep-01 12:33N 53°52' E 008°43'0 0.0
2014-Sep-01 11:33N 53°52' E 008°43'0 0.0
2014-Sep-01 10:33N 53°52' E 008°43'0 0.0
2014-Sep-01 09:33N 53°52' E 008°43'0 0.0
2014-Sep-01 08:33N 53°52' E 008°43'0 0.0
2014-Sep-01 07:30N 53°52' E 008°43'0 0.0
2014-Sep-01 06:33N 53°52' E 008°43'0 0.0
2014-Sep-01 05:33N 53°52' E 008°43'0 0.0
2014-Sep-01 04:33N 53°52' E 008°43'0 0.0
2014-Sep-01 03:33N 53°52' E 008°43'0 0.0
2014-Sep-01 02:33N 53°52' E 008°43'0 0.0
2014-Sep-01 01:33N 53°52' E 008°43'0 0.0
2014-Sep-01 00:33N 53°52' E 008°43'0 0.0
2014-Aug-31 23:33N 53°52' E 008°43'0 0.0
2014-Aug-31 22:33N 53°52' E 008°43'0 0.0
2014-Aug-31 21:33N 53°52' E 008°43'0 0.0
2014-Aug-31 20:33N 53°52' E 008°43'0 0.0
2014-Aug-31 19:33N 53°52' E 008°43'0 0.0
2014-Aug-31 18:33N 53°52' E 008°43'0 0.0
2014-Aug-31 17:33N 53°52' E 008°43'0 0.0
2014-Aug-31 16:33N 53°52' E 008°43'0 0.0
2014-Aug-31 15:33N 53°52' E 008°43'0 0.0
2014-Aug-31 14:33N 53°52' E 008°43'0 0.0
2014-Aug-31 13:30N 53°52' E 008°43'0 0.0
2014-Aug-31 12:30N 53°52' E 008°43'0 0.0
2014-Aug-31 11:30N 53°52' E 008°43'0 0.0
2014-Aug-31 10:33N 53°52' E 008°43'0 0.0
2014-Aug-31 09:33N 53°52' E 008°43'0 0.0
2014-Aug-31 08:33N 53°52' E 008°43'0 0.0
2014-Aug-31 07:33N 53°52' E 008°43'0 0.0
2014-Aug-31 06:33N 53°52' E 008°43'0 0.2
2014-Aug-31 05:33N 53°52' E 008°43'5 4.8
2014-Aug-31 04:33N 53°50' E 008°50'9 9.5
2014-Aug-31 03:33N 53°53' E 009°06'8 8.0
2014-Aug-31 02:33N 53°51' E 009°19'8 8.3
2014-Aug-31 01:33N 53°44' E 009°27'10 9.8
2014-Aug-31 00:33N 53°36' E 009°36'1211.9
2014-Aug-30 23:33N 53°33' E 009°55'3 2.5
2014-Aug-30 22:28N 53°30' E 009°57'0 0.0
2014-Aug-30 21:28N 53°30' E 009°57'0 0.0
2014-Aug-30 20:28N 53°30' E 009°57'0 0.0
2014-Aug-30 19:28N 53°30' E 009°57'0 0.1
2014-Aug-30 18:31N 53°30' E 009°57'0 0.0
2014-Aug-30 17:31N 53°30' E 009°57'0 0.0
2014-Aug-30 16:28N 53°30' E 009°57'0 0.0
2014-Aug-30 15:31N 53°30' E 009°57'1 0.8
2014-Aug-30 14:33N 53°31' E 009°57'1 1.0
2014-Aug-30 13:33N 53°32' E 009°58'0 0.0
2014-Aug-30 12:33N 53°32' E 009°58'0 0.0
2014-Aug-30 11:33N 53°32' E 009°58'0 0.0
2014-Aug-30 10:30N 53°32' E 009°58'0 0.0
2014-Aug-30 09:33N 53°32' E 009°58'0 0.0
2014-Aug-30 08:33N 53°32' E 009°58'0 0.0
2014-Aug-30 07:18N 53°32' E 009°58'0 0.0
2014-Aug-30 06:33N 53°32' E 009°58'0 0.0
2014-Aug-30 05:30N 53°32' E 009°58'0 0.0
2014-Aug-30 04:33N 53°32' E 009°58'0 0.0
2014-Aug-30 03:27N 53°32' E 009°58'0 0.0
2014-Aug-30 02:27N 53°32' E 009°58'0 0.0
2014-Aug-30 01:33N 53°32' E 009°58'0 0.0
2014-Aug-30 00:33N 53°32' E 009°58'0 0.0
2014-Aug-29 23:33N 53°32' E 009°58'0 0.0
2014-Aug-29 22:33N 53°32' E 009°58'0 0.0
2014-Aug-29 21:33N 53°32' E 009°58'0 0.0
2014-Aug-29 20:33N 53°32' E 009°58'1 1.3
2014-Aug-29 19:33N 53°30' E 009°58'0 0.0
2014-Aug-29 18:32N 53°30' E 009°58'0 0.0
2014-Aug-29 17:31N 53°30' E 009°58'0 0.0
2014-Aug-29 16:25N 53°30' E 009°58'0 0.0
2014-Aug-29 15:32N 53°30' E 009°58'0 0.0
2014-Aug-29 14:32N 53°30' E 009°58'0 0.3
2014-Aug-29 13:34N 53°30' E 009°57'9 8.9
2014-Aug-29 12:34N 53°34' E 009°44'1010.3
2014-Aug-29 11:33N 53°40' E 009°30'10 9.6
2014-Aug-29 10:33N 53°49' E 009°22'9 8.8
2014-Aug-29 09:33N 53°53' E 009°09'8 7.7
2014-Aug-29 08:33N 53°51' E 008°56'7 7.3
2014-Aug-29 07:34N 53°52' E 008°44'1 0.9
2014-Aug-29 06:28N 53°52' E 008°43'0 0.0
2014-Aug-29 05:31N 53°52' E 008°43'0 0.0
2014-Aug-29 04:31N 53°52' E 008°43'0 0.0
2014-Aug-29 03:31N 53°52' E 008°43'0 0.0
2014-Aug-29 02:31N 53°52' E 008°43'0 0.0
2014-Aug-29 01:31N 53°52' E 008°43'0 0.0
2014-Aug-29 00:19N 53°52' E 008°43'0 0.0
2014-Aug-28 23:32N 53°52' E 008°43'0 0.0
2014-Aug-28 22:28N 53°52' E 008°43'0 0.0
2014-Aug-28 21:31N 53°52' E 008°43'0 0.0
2014-Aug-28 20:31N 53°52' E 008°43'0 0.0
2014-Aug-28 19:32N 53°52' E 008°43'0 0.0
2014-Aug-28 18:31N 53°52' E 008°43'0 0.0
2014-Aug-28 17:31N 53°52' E 008°43'0 0.0
2014-Aug-28 16:31N 53°52' E 008°43'0 0.0
2014-Aug-28 15:31N 53°52' E 008°43'0 0.0
2014-Aug-28 14:31N 53°52' E 008°43'0 0.0
2014-Aug-28 13:31N 53°52' E 008°43'0 0.0
2014-Aug-28 12:31N 53°52' E 008°43'0 0.0
2014-Aug-28 11:31N 53°52' E 008°43'0 0.0
2014-Aug-28 10:31N 53°52' E 008°43'0 0.0
2014-Aug-28 09:31N 53°52' E 008°43'0 0.0
2014-Aug-28 08:31N 53°52' E 008°43'0 0.0
2014-Aug-28 07:31N 53°52' E 008°43'0 0.0
2014-Aug-28 06:31N 53°52' E 008°43'0 0.0
2014-Aug-28 05:31N 53°52' E 008°43'0 0.0
2014-Aug-28 04:31N 53°52' E 008°43'0 0.0
2014-Aug-28 03:31N 53°52' E 008°43'0 0.0
2014-Aug-28 02:28N 53°52' E 008°43'0 0.0
2014-Aug-28 01:31N 53°52' E 008°43'0 0.0
2014-Aug-28 00:31N 53°52' E 008°43'0 0.0
2014-Aug-27 23:31N 53°52' E 008°43'0 0.0
2014-Aug-27 22:31N 53°52' E 008°43'0 0.0
2014-Aug-27 21:31N 53°52' E 008°43'0 0.0
2014-Aug-27 20:31N 53°52' E 008°43'0 0.0
2014-Aug-27 19:31N 53°52' E 008°43'0 0.0
2014-Aug-27 18:31N 53°52' E 008°43'0 0.0
2014-Aug-27 17:25N 53°52' E 008°43'0 0.0
2014-Aug-27 16:31N 53°52' E 008°43'0 0.0
2014-Aug-27 15:31N 53°52' E 008°43'0 0.0
2014-Aug-27 14:28N 53°52' E 008°43'0 0.0
2014-Aug-27 13:31N 53°52' E 008°43'0 0.0
2014-Aug-27 12:31N 53°52' E 008°43'0 0.0
2014-Aug-27 11:31N 53°52' E 008°43'0 0.0
2014-Aug-27 10:28N 53°52' E 008°43'0 0.0
2014-Aug-27 09:31N 53°52' E 008°43'0 0.0
2014-Aug-27 08:32N 53°52' E 008°43'0 0.0
2014-Aug-27 07:32N 53°52' E 008°43'0 0.0
2014-Aug-27 06:31N 53°52' E 008°43'0 0.0
2014-Aug-27 05:31N 53°52' E 008°43'0 0.0
2014-Aug-27 04:31N 53°52' E 008°43'0 0.0
2014-Aug-27 03:31N 53°52' E 008°43'0 0.0
2014-Aug-27 02:31N 53°52' E 008°43'0 0.0
2014-Aug-27 01:31N 53°52' E 008°43'0 0.0
2014-Aug-27 00:31N 53°52' E 008°43'0 0.0
2014-Aug-26 23:28N 53°52' E 008°43'0 0.0
2014-Aug-26 22:31N 53°52' E 008°43'0 0.0
2014-Aug-26 21:31N 53°52' E 008°43'0 0.0
2014-Aug-26 20:31N 53°52' E 008°43'0 0.0
2014-Aug-26 19:31N 53°52' E 008°43'0 0.0
2014-Aug-26 18:31N 53°52' E 008°43'0 0.0
2014-Aug-26 17:31N 53°52' E 008°43'0 0.0
2014-Aug-26 16:31N 53°52' E 008°43'0 0.0
2014-Aug-26 15:31N 53°52' E 008°43'0 0.0
2014-Aug-26 14:32N 53°52' E 008°43'0 0.0
2014-Aug-26 13:31N 53°52' E 008°43'0 0.0
2014-Aug-26 12:31N 53°52' E 008°43'0 0.0
2014-Aug-26 11:31N 53°52' E 008°43'0 0.0
2014-Aug-26 10:31N 53°52' E 008°43'0 0.0
2014-Aug-26 09:32N 53°52' E 008°43'0 0.0
2014-Aug-26 08:32N 53°52' E 008°43'0 0.0
2014-Aug-26 07:32N 53°52' E 008°43'0 0.0
2014-Aug-26 06:31N 53°52' E 008°43'0 0.0
2014-Aug-26 05:31N 53°52' E 008°43'0 0.0
2014-Aug-26 04:31N 53°52' E 008°43'0 0.0
2014-Aug-26 03:31N 53°52' E 008°43'0 0.0
2014-Aug-26 02:31N 53°52' E 008°43'0 0.0
2014-Aug-26 01:31N 53°52' E 008°43'0 0.0
2014-Aug-26 00:31N 53°52' E 008°43'0 0.0
2014-Aug-25 23:31N 53°52' E 008°43'0 0.0
2014-Aug-25 22:31N 53°52' E 008°43'0 0.0
2014-Aug-25 21:31N 53°52' E 008°43'0 0.0
2014-Aug-25 20:31N 53°52' E 008°43'0 0.0
2014-Aug-25 19:31N 53°52' E 008°43'0 0.0
2014-Aug-25 18:31N 53°52' E 008°43'0 0.0
2014-Aug-25 17:31N 53°52' E 008°43'0 0.0
2014-Aug-25 16:31N 53°52' E 008°43'0 0.0
2014-Aug-25 15:31N 53°52' E 008°43'0 0.0
2014-Aug-25 14:31N 53°52' E 008°43'0 0.0
2014-Aug-25 13:31N 53°52' E 008°43'0 0.0
2014-Aug-25 12:28N 53°52' E 008°43'0 0.0
2014-Aug-25 11:31N 53°52' E 008°43'0 0.0
2014-Aug-25 10:31N 53°52' E 008°43'0 0.0
2014-Aug-25 09:31N 53°52' E 008°43'0 0.0
2014-Aug-25 08:32N 53°52' E 008°43'0 0.0
2014-Aug-25 07:31N 53°52' E 008°43'0 0.0
2014-Aug-25 06:31N 53°52' E 008°43'0 0.0
2014-Aug-25 05:31N 53°52' E 008°43'0 0.0
2014-Aug-25 04:31N 53°52' E 008°43'0 0.0
2014-Aug-25 03:31N 53°52' E 008°43'0 0.2
2014-Aug-25 02:33N 53°52' E 008°43'4 4.4
2014-Aug-25 01:33N 53°56' E 008°39'1010.2
2014-Aug-25 00:33N 53°59' E 008°23'1110.9
2014-Aug-24 23:33N 53°58' E 008°04'1010.0
2014-Aug-24 22:33N 53°50' E 007°55'8 8.3
2014-Aug-24 21:33N 53°43' E 008°04'9 8.8
2014-Aug-24 20:33N 53°35' E 008°10'2 1.8
2014-Aug-24 19:31N 53°33' E 008°10'0 0.0
2014-Aug-24 18:31N 53°33' E 008°10'0 0.0
2014-Aug-24 17:28N 53°33' E 008°10'0 0.0
2014-Aug-24 16:31N 53°33' E 008°10'0 0.0
2014-Aug-24 15:31N 53°33' E 008°10'0 0.0
2014-Aug-24 14:31N 53°33' E 008°10'0 0.2
2014-Aug-24 13:33N 53°34' E 008°10'4 4.4
2014-Aug-24 12:33N 53°38' E 008°08'1010.3
2014-Aug-24 11:34N 53°47' E 008°02'8 8.1
2014-Aug-24 10:33N 53°54' E 007°53'9 9.0
2014-Aug-24 09:34N 54°00' E 008°03'9 8.6
2014-Aug-24 08:33N 54°00' E 008°18'8 7.9
2014-Aug-24 07:33N 53°58' E 008°31'9 9.5
2014-Aug-24 06:34N 53°52' E 008°43'0 0.4
2014-Aug-24 05:32N 53°52' E 008°43'0 0.0
2014-Aug-24 04:32N 53°52' E 008°43'0 0.0
2014-Aug-24 03:32N 53°52' E 008°43'0 0.0
2014-Aug-24 02:32N 53°52' E 008°43'0 0.0
2014-Aug-24 01:32N 53°52' E 008°43'0 0.0
2014-Aug-24 00:32N 53°52' E 008°43'0 0.0
2014-Aug-23 23:32N 53°52' E 008°43'0 0.0
2014-Aug-23 22:32N 53°52' E 008°43'  

Dump ship's entire track history